• Join FlightAware (Why Join?)
  • Login
  • US Flag 
06:28AM EDT


 

Airport Tracker/Info


-or-


 

Live Flight TrackerFlight Track Log ✈ N552XJ ✈ 21-Apr-2013 ✈ KBED - KTEB

Flight Track Log - Related Links

Times and Time Zones

All times are in EDT time to prevent confusion due to time zone crossing. See the N552XJ flight status page for this flight to view local times or setup timezone preferences in your user account.

Time Position Orientation Groundspeed Altitude Reporting Facility
EDT Latitude Longitude Course Direction KTS MPH feet Rate Location/Type
05:47PM 42.4667 -71.3833 267° West 195 224 2,000  Level KA90
05:49PM 42.3122 -71.3872 181° South 258 297 16,000 3,420 Climbing Boston Center
05:50PM 42.2944 -71.5083 259° West 267 307 14,000  Descending Boston Center
05:51PM 42.2786 -71.6264 260° West 297 342 16,000 960 Climbing Boston Center
05:52PM 42.2669 -71.7414 262° West 342 394 16,000  Level Boston Center
05:53PM 42.2531 -71.8792 262° West 353 406 16,000  Level Boston Center
05:54PM 42.2411 -71.9969 262° West 353 406 16,000  Level Boston Center
05:55PM 42.2250 -72.1372 261° West 347 399 16,000  Level Boston Center
05:56PM 42.2128 -72.2522 262° West 352 405 16,000  Level Boston Center
05:57PM 42.1983 -72.3925 262° West 352 405 16,000  Level Boston Center
05:58PM 42.1858 -72.5044 261° West 352 405 16,000  Level Boston Center
05:59PM 42.1689 -72.6475 261° West 352 405 16,000  Level Boston Center
06:00PM 42.1581 -72.7733 263° West 352 405 16,000  Level Boston Center
06:01PM 42.1514 -72.8908 266° West 347 399 16,000  Level Boston Center
06:02PM 42.1403 -73.0336 264° West 352 405 16,000  Level Boston Center
06:03PM 42.1336 -73.1483 266° West 352 405 16,000  Level Boston Center
06:04PM 42.1242 -73.2911 265° West 346 398 16,000  Level Boston Center
06:05PM 42.1128 -73.4253 264° West 351 404 16,000  Level Boston Center
06:06PM 42.1053 -73.5539 266° West 351 404 16,000  Level Boston Center
06:07PM 42.0956 -73.6794 264° West 351 404 16,000  Level Boston Center
06:08PM 42.0525 -73.7961 244° Southwest 344 396 16,000  Level Boston Center
06:09PM 41.9869 -73.8786 223° Southwest 356 410 16,000  Level Boston Center
06:10PM 41.9086 -73.9800 224° Southwest 361 415 16,000  Level Boston Center
06:11PM 41.8428 -74.0619 223° Southwest 366 421 16,000 -420 Level Boston Center
06:12PM 41.7683 -74.1519 222° Southwest 366 421 15,200 -1,740 Descending Boston Center
06:13PM 41.6961 -74.2389 222° Southwest 339 390 12,600 -2,280 Descending Boston Center
06:14PM 41.6408 -74.3094 224° Southwest 312 359 10,700 -2,100 Descending Boston Center
06:15PM 41.5769 -74.3911 224° Southwest 298 343 8,500 -1,800 Descending Boston Center
06:16PM 41.5258 -74.4506 221° Southwest 291 335 7,100 -900 Descending Boston Center
06:17PM 41.4519 -74.5036 208° Southwest 282 325 6,800 -420 Descending Boston Center
06:19PM 41.3000 -74.5500 193° South 274 315 6,000 -720 Descending New York TRACON
06:20PM 41.2333 -74.5333 169° South 269 310 4,700 -600 Descending New York TRACON
06:21PM 41.1667 -74.5000 159° South 271 312 4,800 -360 Climbing New York TRACON
06:22PM 41.1000 -74.4667 159° South 256 295 4,000 -420 Descending New York TRACON
06:23PM 41.0333 -74.4333 159° South 239 275 4,000 -300 Level New York TRACON
06:24PM 40.9667 -74.4000 159° South 242 278 3,400 -540 Descending New York TRACON
06:25PM 40.9167 -74.3667 153° Southeast 222 255 3,000 -240 Descending New York TRACON
06:26PM 40.8500 -74.3500 169° South 218 251 3,000 -420 Level New York TRACON
06:27PM 40.8000 -74.3167 153° Southeast 217 250 2,200 -540 Descending New York TRACON
06:28PM 40.7500 -74.2833 153° Southeast 188 216 2,000 -120 Descending New York TRACON
06:29PM 40.7500 -74.2333 90° East 165 190 2,000 -300 Level New York TRACON
06:30PM 40.7667 -74.1833 66° East 166 191 1,500 -300 Descending New York TRACON
06:31PM 40.8000 -74.1333 49° Northeast 164 189 1,500  Level New York TRACON